Biscotasing, Canada
Current Conditions -  °F | °C
As of 3:00 PM on Sunday 21 Dec 2014 (Local Time) from CYLD Reporting Station
Overcast Overcast  
Wind Chill: 15°   Ceiling: 1500
Heat Index: 25°   Visibility: 15mi
Dew Point: 19°   Wind: 9mph
Humidity: 80%   Direction: 160°SSE
Pressure: 30.09"   Gusts: NA
Location:  47.3°N, 82.1°W
Report Text: CYLD 212000Z 16008KT 15SM OVC015 M04/M07 A3009 RMK SC8 SLP221
Loading
Personal Weather Stations






























Interactive Weather Map New forecast layout! Learn more

10-Day Weather Forecast

Advertisements
Track Severe Weather on mobile